sensor_id;sensor_type;location;lat;lon;timestamp;P1;durP1;ratioP1;P2;durP2;ratioP2
26864;SDS011;40618;51.166;10.322;2023-09-08T00:01:52;4.35;;;2.70;;
26864;SDS011;40618;51.166;10.322;2023-09-08T00:04:18;2.75;;;2.47;;
26864;SDS011;40618;51.166;10.322;2023-09-08T00:06:45;4.93;;;2.38;;
26864;SDS011;40618;51.166;10.322;2023-09-08T00:09:11;7.28;;;3.20;;
26864;SDS011;40618;51.166;10.322;2023-09-08T00:11:37;4.47;;;2.50;;
26864;SDS011;40618;51.166;10.322;2023-09-08T00:14:03;4.60;;;2.55;;
26864;SDS011;40618;51.166;10.322;2023-09-08T00:16:29;8.20;;;2.92;;
26864;SDS011;40618;51.166;10.322;2023-09-08T00:18:55;3.38;;;2.58;;
26864;SDS011;40618;51.166;10.322;2023-09-08T00:21:24;3.45;;;3.15;;
26864;SDS011;40618;51.166;10.322;2023-09-08T00:23:51;3.28;;;2.95;;
26864;SDS011;40618;51.166;10.322;2023-09-08T00:26:18;4.25;;;2.80;;
26864;SDS011;40618;51.166;10.322;2023-09-08T00:28:44;5.10;;;2.67;;
26864;SDS011;40618;51.166;10.322;2023-09-08T00:31:09;3.50;;;2.53;;
26864;SDS011;40618;51.166;10.322;2023-09-08T00:33:35;5.20;;;3.20;;
26864;SDS011;40618;51.166;10.322;2023-09-08T00:36:00;6.93;;;3.30;;
26864;SDS011;40618;51.166;10.322;2023-09-08T00:38:26;4.65;;;2.78;;
26864;SDS011;40618;51.166;10.322;2023-09-08T00:40:52;4.97;;;2.63;;
26864;SDS011;40618;51.166;10.322;2023-09-08T00:43:17;3.85;;;2.42;;
26864;SDS011;40618;51.166;10.322;2023-09-08T00:45:43;3.35;;;2.88;;
26864;SDS011;40618;51.166;10.322;2023-09-08T00:48:11;3.58;;;2.55;;
26864;SDS011;40618;51.166;10.322;2023-09-08T00:50:37;4.70;;;2.45;;
26864;SDS011;40618;51.166;10.322;2023-09-08T00:53:04;3.72;;;2.65;;
26864;SDS011;40618;51.166;10.322;2023-09-08T00:55:31;4.20;;;2.72;;
26864;SDS011;40618;51.166;10.322;2023-09-08T00:57:58;4.22;;;2.97;;
26864;SDS011;40618;51.166;10.322;2023-09-08T01:00:25;3.35;;;2.40;;
26864;SDS011;40618;51.166;10.322;2023-09-08T01:02:51;7.85;;;3.72;;
26864;SDS011;40618;51.166;10.322;2023-09-08T01:05:17;4.40;;;3.17;;
26864;SDS011;40618;51.166;10.322;2023-09-08T01:07:44;4.05;;;3.10;;
26864;SDS011;40618;51.166;10.322;2023-09-08T01:10:11;4.25;;;3.28;;
26864;SDS011;40618;51.166;10.322;2023-09-08T01:12:38;4.20;;;3.05;;
26864;SDS011;40618;51.166;10.322;2023-09-08T01:15:05;8.15;;;3.47;;
26864;SDS011;40618;51.166;10.322;2023-09-08T01:17:32;4.70;;;3.20;;
26864;SDS011;40618;51.166;10.322;2023-09-08T01:20:15;6.28;;;2.88;;
26864;SDS011;40618;51.166;10.322;2023-09-08T01:25:45;4.55;;;2.97;;
26864;SDS011;40618;51.166;10.322;2023-09-08T01:28:20;6.60;;;2.92;;
26864;SDS011;40618;51.166;10.322;2023-09-08T01:30:48;7.32;;;3.05;;
26864;SDS011;40618;51.166;10.322;2023-09-08T01:33:15;3.40;;;2.92;;
26864;SDS011;40618;51.166;10.322;2023-09-08T01:35:42;4.10;;;2.72;;
26864;SDS011;40618;51.166;10.322;2023-09-08T01:38:08;2.85;;;2.55;;
26864;SDS011;40618;51.166;10.322;2023-09-08T01:40:34;6.25;;;3.03;;
26864;SDS011;40618;51.166;10.322;2023-09-08T01:43:00;5.15;;;3.13;;
26864;SDS011;40618;51.166;10.322;2023-09-08T01:45:26;3.70;;;3.10;;
26864;SDS011;40618;51.166;10.322;2023-09-08T01:47:51;4.00;;;3.47;;
26864;SDS011;40618;51.166;10.322;2023-09-08T01:50:17;3.60;;;3.08;;
26864;SDS011;40618;51.166;10.322;2023-09-08T01:52:47;4.80;;;2.90;;
26864;SDS011;40618;51.166;10.322;2023-09-08T01:55:14;4.65;;;2.92;;
26864;SDS011;40618;51.166;10.322;2023-09-08T01:57:41;4.35;;;3.17;;
26864;SDS011;40618;51.166;10.322;2023-09-08T02:00:07;6.53;;;3.50;;
26864;SDS011;40618;51.166;10.322;2023-09-08T02:02:34;6.20;;;3.42;;
26864;SDS011;40618;51.166;10.322;2023-09-08T02:05:00;3.90;;;2.70;;
26864;SDS011;40618;51.166;10.322;2023-09-08T02:07:25;6.25;;;2.92;;
26864;SDS011;40618;51.166;10.322;2023-09-08T02:09:51;3.90;;;2.72;;
26864;SDS011;40618;51.166;10.322;2023-09-08T02:12:17;4.18;;;2.95;;
26864;SDS011;40618;51.166;10.322;2023-09-08T02:14:42;3.78;;;2.72;;
26864;SDS011;40618;51.166;10.322;2023-09-08T02:17:08;3.58;;;2.92;;
26864;SDS011;40618;51.166;10.322;2023-09-08T02:19:33;4.47;;;2.83;;
26864;SDS011;40618;51.166;10.322;2023-09-08T02:21:59;5.22;;;3.05;;
26864;SDS011;40618;51.166;10.322;2023-09-08T02:24:24;5.18;;;3.25;;
26864;SDS011;40618;51.166;10.322;2023-09-08T02:26:50;7.45;;;2.97;;
26864;SDS011;40618;51.166;10.322;2023-09-08T02:29:16;5.68;;;3.33;;
26864;SDS011;40618;51.166;10.322;2023-09-08T02:31:41;7.07;;;3.22;;
26864;SDS011;40618;51.166;10.322;2023-09-08T02:34:07;5.60;;;3.63;;
26864;SDS011;40618;51.166;10.322;2023-09-08T02:36:32;4.95;;;3.40;;
26864;SDS011;40618;51.166;10.322;2023-09-08T02:38:58;6.63;;;3.85;;
26864;SDS011;40618;51.166;10.322;2023-09-08T02:41:24;6.38;;;3.40;;
26864;SDS011;40618;51.166;10.322;2023-09-08T02:43:49;6.10;;;3.88;;
26864;SDS011;40618;51.166;10.322;2023-09-08T02:46:15;8.23;;;4.22;;
26864;SDS011;40618;51.166;10.322;2023-09-08T02:48:41;6.18;;;3.92;;
26864;SDS011;40618;51.166;10.322;2023-09-08T02:51:07;5.57;;;3.75;;
26864;SDS011;40618;51.166;10.322;2023-09-08T02:53:33;4.60;;;3.10;;
26864;SDS011;40618;51.166;10.322;2023-09-08T02:55:58;4.78;;;3.63;;
26864;SDS011;40618;51.166;10.322;2023-09-08T02:58:25;6.63;;;3.55;;
26864;SDS011;40618;51.166;10.322;2023-09-08T03:00:52;7.20;;;3.47;;
26864;SDS011;40618;51.166;10.322;2023-09-08T03:03:20;4.88;;;3.45;;
26864;SDS011;40618;51.166;10.322;2023-09-08T03:05:46;7.32;;;3.47;;
26864;SDS011;40618;51.166;10.322;2023-09-08T03:08:12;5.28;;;3.13;;
26864;SDS011;40618;51.166;10.322;2023-09-08T03:10:38;5.15;;;3.28;;
26864;SDS011;40618;51.166;10.322;2023-09-08T03:13:03;3.25;;;2.95;;
26864;SDS011;40618;51.166;10.322;2023-09-08T03:15:30;3.30;;;2.97;;
26864;SDS011;40618;51.166;10.322;2023-09-08T03:17:56;4.20;;;3.30;;
26864;SDS011;40618;51.166;10.322;2023-09-08T03:20:23;5.10;;;3.15;;
26864;SDS011;40618;51.166;10.322;2023-09-08T03:22:53;3.28;;;2.78;;
26864;SDS011;40618;51.166;10.322;2023-09-08T03:25:19;4.78;;;3.50;;
26864;SDS011;40618;51.166;10.322;2023-09-08T03:27:46;5.72;;;3.20;;
26864;SDS011;40618;51.166;10.322;2023-09-08T03:30:12;5.30;;;3.30;;
26864;SDS011;40618;51.166;10.322;2023-09-08T03:32:38;3.97;;;3.10;;
26864;SDS011;40618;51.166;10.322;2023-09-08T03:35:04;6.60;;;3.00;;
26864;SDS011;40618;51.166;10.322;2023-09-08T03:37:36;5.15;;;3.33;;
26864;SDS011;40618;51.166;10.322;2023-09-08T03:40:01;6.30;;;3.25;;
26864;SDS011;40618;51.166;10.322;2023-09-08T03:42:30;3.92;;;3.10;;
26864;SDS011;40618;51.166;10.322;2023-09-08T03:44:56;4.55;;;2.75;;
26864;SDS011;40618;51.166;10.322;2023-09-08T03:47:21;5.40;;;3.00;;
26864;SDS011;40618;51.166;10.322;2023-09-08T03:49:47;5.28;;;3.38;;
26864;SDS011;40618;51.166;10.322;2023-09-08T03:52:12;4.95;;;2.95;;
26864;SDS011;40618;51.166;10.322;2023-09-08T03:54:38;6.47;;;3.47;;
26864;SDS011;40618;51.166;10.322;2023-09-08T03:57:04;4.47;;;3.28;;
26864;SDS011;40618;51.166;10.322;2023-09-08T03:59:29;4.28;;;3.00;;
26864;SDS011;40618;51.166;10.322;2023-09-08T04:01:55;8.23;;;3.83;;
26864;SDS011;40618;51.166;10.322;2023-09-08T04:04:21;5.15;;;3.58;;
26864;SDS011;40618;51.166;10.322;2023-09-08T04:06:47;5.05;;;3.67;;
26864;SDS011;40618;51.166;10.322;2023-09-08T04:09:12;4.72;;;3.47;;
26864;SDS011;40618;51.166;10.322;2023-09-08T04:11:38;4.47;;;3.65;;
26864;SDS011;40618;51.166;10.322;2023-09-08T04:14:04;5.60;;;3.13;;
26864;SDS011;40618;51.166;10.322;2023-09-08T04:16:29;4.07;;;3.10;;
26864;SDS011;40618;51.166;10.322;2023-09-08T04:18:55;4.07;;;3.38;;
26864;SDS011;40618;51.166;10.322;2023-09-08T04:21:20;5.63;;;3.33;;
26864;SDS011;40618;51.166;10.322;2023-09-08T04:23:46;5.82;;;3.58;;
26864;SDS011;40618;51.166;10.322;2023-09-08T04:26:12;4.40;;;3.58;;
26864;SDS011;40618;51.166;10.322;2023-09-08T04:28:38;4.95;;;3.92;;
26864;SDS011;40618;51.166;10.322;2023-09-08T04:31:04;4.68;;;3.67;;
26864;SDS011;40618;51.166;10.322;2023-09-08T04:33:29;5.93;;;3.60;;
26864;SDS011;40618;51.166;10.322;2023-09-08T04:35:55;5.78;;;3.67;;
26864;SDS011;40618;51.166;10.322;2023-09-08T04:38:21;4.95;;;3.70;;
26864;SDS011;40618;51.166;10.322;2023-09-08T04:40:46;7.40;;;3.67;;
26864;SDS011;40618;51.166;10.322;2023-09-08T04:43:12;3.92;;;3.35;;
26864;SDS011;40618;51.166;10.322;2023-09-08T04:45:37;5.18;;;3.88;;
26864;SDS011;40618;51.166;10.322;2023-09-08T04:48:04;5.50;;;4.03;;
26864;SDS011;40618;51.166;10.322;2023-09-08T04:50:30;4.25;;;3.45;;
26864;SDS011;40618;51.166;10.322;2023-09-08T04:52:56;5.82;;;3.92;;
26864;SDS011;40618;51.166;10.322;2023-09-08T04:55:21;4.65;;;3.67;;
26864;SDS011;40618;51.166;10.322;2023-09-08T04:57:48;7.63;;;4.05;;
26864;SDS011;40618;51.166;10.322;2023-09-08T05:00:14;5.75;;;3.88;;
26864;SDS011;40618;51.166;10.322;2023-09-08T05:02:40;6.13;;;3.47;;
26864;SDS011;40618;51.166;10.322;2023-09-08T05:05:05;5.22;;;3.20;;
26864;SDS011;40618;51.166;10.322;2023-09-08T05:07:31;8.48;;;4.05;;
26864;SDS011;40618;51.166;10.322;2023-09-08T05:09:57;6.30;;;3.40;;
26864;SDS011;40618;51.166;10.322;2023-09-08T05:12:23;5.93;;;3.90;;
26864;SDS011;40618;51.166;10.322;2023-09-08T05:14:48;4.55;;;3.67;;
26864;SDS011;40618;51.166;10.322;2023-09-08T05:17:14;4.22;;;3.65;;
26864;SDS011;40618;51.166;10.322;2023-09-08T05:19:39;5.95;;;3.65;;
26864;SDS011;40618;51.166;10.322;2023-09-08T05:22:05;4.55;;;3.70;;
26864;SDS011;40618;51.166;10.322;2023-09-08T05:24:34;9.18;;;3.40;;
26864;SDS011;40618;51.166;10.322;2023-09-08T05:26:59;4.75;;;3.42;;
26864;SDS011;40618;51.166;10.322;2023-09-08T05:29:25;5.10;;;3.35;;
26864;SDS011;40618;51.166;10.322;2023-09-08T05:31:51;4.18;;;3.40;;
26864;SDS011;40618;51.166;10.322;2023-09-08T05:34:16;6.25;;;3.83;;
26864;SDS011;40618;51.166;10.322;2023-09-08T05:36:42;5.43;;;3.97;;
26864;SDS011;40618;51.166;10.322;2023-09-08T05:39:08;3.88;;;3.20;;
26864;SDS011;40618;51.166;10.322;2023-09-08T05:41:35;4.32;;;3.75;;
26864;SDS011;40618;51.166;10.322;2023-09-08T05:44:01;4.82;;;3.95;;
26864;SDS011;40618;51.166;10.322;2023-09-08T05:46:26;11.02;;;3.97;;
26864;SDS011;40618;51.166;10.322;2023-09-08T05:48:52;5.57;;;4.40;;
26864;SDS011;40618;51.166;10.322;2023-09-08T05:51:18;4.40;;;3.50;;
26864;SDS011;40618;51.166;10.322;2023-09-08T05:53:43;7.20;;;3.67;;
26864;SDS011;40618;51.166;10.322;2023-09-08T05:56:09;4.47;;;3.45;;
26864;SDS011;40618;51.166;10.322;2023-09-08T05:58:35;5.32;;;3.25;;
26864;SDS011;40618;51.166;10.322;2023-09-08T06:01:01;5.60;;;3.58;;
26864;SDS011;40618;51.166;10.322;2023-09-08T06:03:28;5.05;;;3.60;;
26864;SDS011;40618;51.166;10.322;2023-09-08T06:05:55;5.63;;;3.50;;
26864;SDS011;40618;51.166;10.322;2023-09-08T06:08:22;4.10;;;3.20;;
26864;SDS011;40618;51.166;10.322;2023-09-08T06:10:48;4.65;;;3.38;;
26864;SDS011;40618;51.166;10.322;2023-09-08T06:13:14;4.25;;;3.85;;
26864;SDS011;40618;51.166;10.322;2023-09-08T06:15:39;5.47;;;4.00;;
26864;SDS011;40618;51.166;10.322;2023-09-08T06:18:05;6.10;;;3.78;;
26864;SDS011;40618;51.166;10.322;2023-09-08T06:20:31;4.97;;;3.50;;
26864;SDS011;40618;51.166;10.322;2023-09-08T06:22:56;7.43;;;3.47;;
26864;SDS011;40618;51.166;10.322;2023-09-08T06:25:22;5.00;;;3.75;;
26864;SDS011;40618;51.166;10.322;2023-09-08T06:27:47;5.40;;;3.80;;
26864;SDS011;40618;51.166;10.322;2023-09-08T06:30:13;5.28;;;4.05;;
26864;SDS011;40618;51.166;10.322;2023-09-08T06:32:41;6.18;;;3.72;;
26864;SDS011;40618;51.166;10.322;2023-09-08T06:35:07;4.70;;;3.30;;
26864;SDS011;40618;51.166;10.322;2023-09-08T06:37:36;4.13;;;3.45;;
26864;SDS011;40618;51.166;10.322;2023-09-08T06:40:04;7.28;;;4.00;;
26864;SDS011;40618;51.166;10.322;2023-09-08T06:42:31;5.40;;;3.85;;
26864;SDS011;40618;51.166;10.322;2023-09-08T06:44:57;4.78;;;3.63;;
26864;SDS011;40618;51.166;10.322;2023-09-08T06:47:24;4.18;;;3.53;;
26864;SDS011;40618;51.166;10.322;2023-09-08T06:49:49;5.80;;;3.85;;
26864;SDS011;40618;51.166;10.322;2023-09-08T06:52:16;4.38;;;3.70;;
26864;SDS011;40618;51.166;10.322;2023-09-08T06:54:42;4.18;;;3.63;;
26864;SDS011;40618;51.166;10.322;2023-09-08T06:57:10;3.97;;;3.58;;
26864;SDS011;40618;51.166;10.322;2023-09-08T06:59:36;10.63;;;4.10;;
26864;SDS011;40618;51.166;10.322;2023-09-08T07:02:01;5.30;;;3.50;;
26864;SDS011;40618;51.166;10.322;2023-09-08T07:04:27;4.78;;;3.75;;
26864;SDS011;40618;51.166;10.322;2023-09-08T07:06:53;5.75;;;4.20;;
26864;SDS011;40618;51.166;10.322;2023-09-08T07:09:19;5.28;;;4.35;;
26864;SDS011;40618;51.166;10.322;2023-09-08T07:11:45;4.82;;;3.60;;
26864;SDS011;40618;51.166;10.322;2023-09-08T07:14:11;6.40;;;3.67;;
26864;SDS011;40618;51.166;10.322;2023-09-08T07:16:37;4.88;;;4.18;;
26864;SDS011;40618;51.166;10.322;2023-09-08T07:19:03;4.10;;;3.28;;
26864;SDS011;40618;51.166;10.322;2023-09-08T07:21:29;4.38;;;3.47;;
26864;SDS011;40618;51.166;10.322;2023-09-08T07:23:54;5.57;;;3.53;;
26864;SDS011;40618;51.166;10.322;2023-09-08T07:26:20;6.82;;;3.60;;
26864;SDS011;40618;51.166;10.322;2023-09-08T07:28:45;4.93;;;3.83;;
26864;SDS011;40618;51.166;10.322;2023-09-08T07:31:11;3.53;;;3.22;;
26864;SDS011;40618;51.166;10.322;2023-09-08T07:33:37;5.63;;;4.03;;
26864;SDS011;40618;51.166;10.322;2023-09-08T07:36:04;4.53;;;3.75;;
26864;SDS011;40618;51.166;10.322;2023-09-08T07:38:31;5.18;;;3.90;;
26864;SDS011;40618;51.166;10.322;2023-09-08T07:40:57;7.78;;;4.25;;
26864;SDS011;40618;51.166;10.322;2023-09-08T07:43:25;4.63;;;4.07;;
26864;SDS011;40618;51.166;10.322;2023-09-08T07:45:51;5.65;;;4.15;;
26864;SDS011;40618;51.166;10.322;2023-09-08T07:48:16;5.13;;;3.55;;
26864;SDS011;40618;51.166;10.322;2023-09-08T07:50:42;4.90;;;3.97;;
26864;SDS011;40618;51.166;10.322;2023-09-08T07:53:07;6.82;;;4.32;;
26864;SDS011;40618;51.166;10.322;2023-09-08T07:55:33;3.92;;;3.40;;
26864;SDS011;40618;51.166;10.322;2023-09-08T07:58:00;5.47;;;3.97;;
26864;SDS011;40618;51.166;10.322;2023-09-08T08:00:28;4.93;;;3.60;;
26864;SDS011;40618;51.166;10.322;2023-09-08T08:02:55;6.32;;;3.50;;
26864;SDS011;40618;51.166;10.322;2023-09-08T08:05:22;4.63;;;3.60;;
26864;SDS011;40618;51.166;10.322;2023-09-08T08:07:49;4.57;;;3.72;;
26864;SDS011;40618;51.166;10.322;2023-09-08T08:10:14;4.82;;;3.60;;
26864;SDS011;40618;51.166;10.322;2023-09-08T08:12:41;6.15;;;3.85;;
26864;SDS011;40618;51.166;10.322;2023-09-08T08:15:08;4.40;;;3.85;;
26864;SDS011;40618;51.166;10.322;2023-09-08T08:17:36;5.03;;;3.75;;
26864;SDS011;40618;51.166;10.322;2023-09-08T08:20:03;5.60;;;3.83;;
26864;SDS011;40618;51.166;10.322;2023-09-08T08:22:34;9.13;;;3.90;;
26864;SDS011;40618;51.166;10.322;2023-09-08T08:25:01;4.30;;;3.47;;
26864;SDS011;40618;51.166;10.322;2023-09-08T08:27:28;5.63;;;3.38;;
26864;SDS011;40618;51.166;10.322;2023-09-08T08:29:55;6.22;;;3.58;;
26864;SDS011;40618;51.166;10.322;2023-09-08T08:32:24;4.47;;;3.83;;
26864;SDS011;40618;51.166;10.322;2023-09-08T08:34:50;4.25;;;3.28;;
26864;SDS011;40618;51.166;10.322;2023-09-08T08:37:16;4.28;;;3.28;;
26864;SDS011;40618;51.166;10.322;2023-09-08T08:39:42;6.65;;;3.30;;
26864;SDS011;40618;51.166;10.322;2023-09-08T08:42:11;4.88;;;4.00;;
26864;SDS011;40618;51.166;10.322;2023-09-08T08:44:37;5.25;;;3.40;;
26864;SDS011;40618;51.166;10.322;2023-09-08T08:47:06;4.30;;;3.67;;
26864;SDS011;40618;51.166;10.322;2023-09-08T08:49:34;3.27;;;2.93;;
26864;SDS011;40618;51.166;10.322;2023-09-08T08:52:01;3.92;;;3.10;;
26864;SDS011;40618;51.166;10.322;2023-09-08T08:54:32;4.85;;;3.47;;
26864;SDS011;40618;51.166;10.322;2023-09-08T08:57:02;5.82;;;3.38;;
26864;SDS011;40618;51.166;10.322;2023-09-08T08:59:28;5.70;;;3.83;;
26864;SDS011;40618;51.166;10.322;2023-09-08T09:01:56;8.82;;;4.20;;
26864;SDS011;40618;51.166;10.322;2023-09-08T09:04:24;8.30;;;3.55;;
26864;SDS011;40618;51.166;10.322;2023-09-08T09:06:53;4.32;;;3.55;;
26864;SDS011;40618;51.166;10.322;2023-09-08T09:09:19;4.18;;;3.25;;
26864;SDS011;40618;51.166;10.322;2023-09-08T09:11:45;13.80;;;4.05;;
26864;SDS011;40618;51.166;10.322;2023-09-08T09:14:11;3.72;;;3.30;;
26864;SDS011;40618;51.166;10.322;2023-09-08T09:16:40;5.32;;;3.53;;
26864;SDS011;40618;51.166;10.322;2023-09-08T09:19:07;3.97;;;3.20;;
26864;SDS011;40618;51.166;10.322;2023-09-08T09:21:46;3.40;;;2.92;;
26864;SDS011;40618;51.166;10.322;2023-09-08T09:24:17;3.83;;;3.40;;
26864;SDS011;40618;51.166;10.322;2023-09-08T09:27:06;4.75;;;3.15;;
26864;SDS011;40618;51.166;10.322;2023-09-08T09:29:33;15.85;;;3.30;;
26864;SDS011;40618;51.166;10.322;2023-09-08T09:32:09;3.08;;;2.70;;
26864;SDS011;40618;51.166;10.322;2023-09-08T09:34:35;3.58;;;3.17;;
26864;SDS011;40618;51.166;10.322;2023-09-08T09:37:00;3.92;;;2.83;;
26864;SDS011;40618;51.166;10.322;2023-09-08T09:39:28;6.15;;;2.80;;
26864;SDS011;40618;51.166;10.322;2023-09-08T09:41:54;3.17;;;2.88;;
26864;SDS011;40618;51.166;10.322;2023-09-08T09:44:22;3.03;;;2.72;;
26864;SDS011;40618;51.166;10.322;2023-09-08T09:46:51;6.28;;;2.85;;
26864;SDS011;40618;51.166;10.322;2023-09-08T09:49:17;3.33;;;2.72;;
26864;SDS011;40618;51.166;10.322;2023-09-08T09:51:44;3.20;;;2.63;;
26864;SDS011;40618;51.166;10.322;2023-09-08T09:54:16;5.60;;;2.50;;
26864;SDS011;40618;51.166;10.322;2023-09-08T09:56:43;5.03;;;2.78;;
26864;SDS011;40618;51.166;10.322;2023-09-08T09:59:10;4.55;;;2.80;;
26864;SDS011;40618;51.166;10.322;2023-09-08T10:01:38;5.55;;;2.67;;
26864;SDS011;40618;51.166;10.322;2023-09-08T10:04:05;2.65;;;2.42;;
26864;SDS011;40618;51.166;10.322;2023-09-08T10:06:32;2.85;;;2.60;;
26864;SDS011;40618;51.166;10.322;2023-09-08T10:09:01;2.93;;;2.43;;
26864;SDS011;40618;51.166;10.322;2023-09-08T10:11:38;3.80;;;2.50;;
26864;SDS011;40618;51.166;10.322;2023-09-08T10:14:09;5.15;;;2.28;;
26864;SDS011;40618;51.166;10.322;2023-09-08T10:16:38;3.35;;;2.45;;
26864;SDS011;40618;51.166;10.322;2023-09-08T10:19:08;4.05;;;2.65;;
26864;SDS011;40618;51.166;10.322;2023-09-08T10:22:10;4.80;;;2.67;;
26864;SDS011;40618;51.166;10.322;2023-09-08T10:24:29;5.15;;;2.90;;
26864;SDS011;40618;51.166;10.322;2023-09-08T10:27:00;4.28;;;2.50;;
26864;SDS011;40618;51.166;10.322;2023-09-08T10:29:34;4.10;;;2.88;;
26864;SDS011;40618;51.166;10.322;2023-09-08T10:32:00;6.45;;;2.53;;
26864;SDS011;40618;51.166;10.322;2023-09-08T10:34:27;5.20;;;3.33;;
26864;SDS011;40618;51.166;10.322;2023-09-08T10:36:55;3.28;;;2.85;;
26864;SDS011;40618;51.166;10.322;2023-09-08T10:39:31;2.70;;;2.50;;
26864;SDS011;40618;51.166;10.322;2023-09-08T10:44:43;3.65;;;2.60;;
26864;SDS011;40618;51.166;10.322;2023-09-08T10:47:09;3.13;;;2.80;;
26864;SDS011;40618;51.166;10.322;2023-09-08T10:49:35;4.03;;;2.85;;
26864;SDS011;40618;51.166;10.322;2023-09-08T10:52:10;4.22;;;2.58;;
26864;SDS011;40618;51.166;10.322;2023-09-08T10:54:40;3.30;;;2.67;;
26864;SDS011;40618;51.166;10.322;2023-09-08T10:57:12;3.20;;;2.53;;
26864;SDS011;40618;51.166;10.322;2023-09-08T11:05:03;3.50;;;2.45;;
26864;SDS011;40618;51.166;10.322;2023-09-08T11:07:34;3.40;;;2.45;;
26864;SDS011;40618;51.166;10.322;2023-09-08T11:10:02;2.83;;;2.42;;
26864;SDS011;40618;51.166;10.322;2023-09-08T11:12:29;4.35;;;2.78;;
26864;SDS011;40618;51.166;10.322;2023-09-08T11:14:56;4.68;;;2.72;;
26864;SDS011;40618;51.166;10.322;2023-09-08T11:17:26;3.47;;;3.13;;
26864;SDS011;40618;51.166;10.322;2023-09-08T11:19:55;3.55;;;2.60;;
26864;SDS011;40618;51.166;10.322;2023-09-08T11:22:24;4.28;;;2.75;;
26864;SDS011;40618;51.166;10.322;2023-09-08T11:24:51;10.50;;;2.58;;
26864;SDS011;40618;51.166;10.322;2023-09-08T11:27:18;4.50;;;2.97;;
26864;SDS011;40618;51.166;10.322;2023-09-08T11:29:46;7.28;;;3.00;;
26864;SDS011;40618;51.166;10.322;2023-09-08T11:32:12;2.92;;;2.65;;
26864;SDS011;40618;51.166;10.322;2023-09-08T11:34:38;7.97;;;2.92;;
26864;SDS011;40618;51.166;10.322;2023-09-08T11:39:38;2.95;;;2.65;;
26864;SDS011;40618;51.166;10.322;2023-09-08T11:42:05;5.53;;;3.10;;
26864;SDS011;40618;51.166;10.322;2023-09-08T11:44:33;3.88;;;2.60;;
26864;SDS011;40618;51.166;10.322;2023-09-08T11:47:01;4.07;;;2.90;;
26864;SDS011;40618;51.166;10.322;2023-09-08T11:49:37;5.55;;;2.90;;
26864;SDS011;40618;51.166;10.322;2023-09-08T11:52:06;4.50;;;2.75;;
26864;SDS011;40618;51.166;10.322;2023-09-08T11:54:33;3.17;;;2.88;;
26864;SDS011;40618;51.166;10.322;2023-09-08T11:57:01;3.95;;;3.30;;
26864;SDS011;40618;51.166;10.322;2023-09-08T11:59:28;3.00;;;2.53;;
26864;SDS011;40618;51.166;10.322;2023-09-08T12:01:57;2.90;;;2.60;;
26864;SDS011;40618;51.166;10.322;2023-09-08T12:04:24;3.08;;;2.40;;
26864;SDS011;40618;51.166;10.322;2023-09-08T12:06:52;2.78;;;2.50;;
26864;SDS011;40618;51.166;10.322;2023-09-08T12:11:46;2.67;;;2.47;;
26864;SDS011;40618;51.166;10.322;2023-09-08T12:14:13;3.03;;;2.70;;
26864;SDS011;40618;51.166;10.322;2023-09-08T12:16:40;6.30;;;2.63;;
26864;SDS011;40618;51.166;10.322;2023-09-08T12:19:07;2.83;;;2.55;;
26864;SDS011;40618;51.166;10.322;2023-09-08T12:21:56;4.25;;;2.53;;
26864;SDS011;40618;51.166;10.322;2023-09-08T12:27:15;3.60;;;2.80;;
26864;SDS011;40618;51.166;10.322;2023-09-08T12:30:00;4.60;;;3.00;;
26864;SDS011;40618;51.166;10.322;2023-09-08T12:32:28;3.97;;;2.90;;
26864;SDS011;40618;51.166;10.322;2023-09-08T12:34:56;3.40;;;3.10;;
26864;SDS011;40618;51.166;10.322;2023-09-08T12:37:23;4.10;;;3.05;;
26864;SDS011;40618;51.166;10.322;2023-09-08T12:39:52;3.20;;;2.83;;
26864;SDS011;40618;51.166;10.322;2023-09-08T12:42:18;4.43;;;2.67;;
26864;SDS011;40618;51.166;10.322;2023-09-08T12:44:44;4.13;;;2.80;;
26864;SDS011;40618;51.166;10.322;2023-09-08T12:47:10;4.43;;;2.92;;
26864;SDS011;40618;51.166;10.322;2023-09-08T12:49:39;5.25;;;2.80;;
26864;SDS011;40618;51.166;10.322;2023-09-08T12:52:05;3.40;;;3.10;;
26864;SDS011;40618;51.166;10.322;2023-09-08T12:54:31;4.00;;;3.10;;
26864;SDS011;40618;51.166;10.322;2023-09-08T12:56:57;3.50;;;2.60;;
26864;SDS011;40618;51.166;10.322;2023-09-08T12:59:23;3.22;;;2.72;;
26864;SDS011;40618;51.166;10.322;2023-09-08T13:01:48;3.17;;;2.88;;
26864;SDS011;40618;51.166;10.322;2023-09-08T13:04:14;4.28;;;2.70;;
26864;SDS011;40618;51.166;10.322;2023-09-08T13:06:40;3.42;;;2.75;;
26864;SDS011;40618;51.166;10.322;2023-09-08T13:09:05;5.82;;;2.90;;
26864;SDS011;40618;51.166;10.322;2023-09-08T13:11:32;3.17;;;2.70;;
26864;SDS011;40618;51.166;10.322;2023-09-08T13:13:58;3.58;;;2.90;;
26864;SDS011;40618;51.166;10.322;2023-09-08T13:16:23;3.78;;;2.90;;
26864;SDS011;40618;51.166;10.322;2023-09-08T13:18:49;6.07;;;3.75;;
26864;SDS011;40618;51.166;10.322;2023-09-08T13:21:16;4.80;;;3.60;;
26864;SDS011;40618;51.166;10.322;2023-09-08T13:23:41;4.82;;;2.95;;
26864;SDS011;40618;51.166;10.322;2023-09-08T13:26:07;3.20;;;2.90;;
26864;SDS011;40618;51.166;10.322;2023-09-08T13:28:33;3.25;;;2.80;;
26864;SDS011;40618;51.166;10.322;2023-09-08T13:30:58;3.30;;;2.60;;
26864;SDS011;40618;51.166;10.322;2023-09-08T13:33:24;3.97;;;3.05;;
26864;SDS011;40618;51.166;10.322;2023-09-08T13:35:49;4.20;;;3.00;;
26864;SDS011;40618;51.166;10.322;2023-09-08T13:38:15;3.90;;;2.55;;
26864;SDS011;40618;51.166;10.322;2023-09-08T13:40:41;4.30;;;2.92;;
26864;SDS011;40618;51.166;10.322;2023-09-08T13:43:06;3.80;;;3.05;;
26864;SDS011;40618;51.166;10.322;2023-09-08T13:45:32;3.88;;;2.85;;
26864;SDS011;40618;51.166;10.322;2023-09-08T13:47:58;3.65;;;2.90;;
26864;SDS011;40618;51.166;10.322;2023-09-08T13:50:23;3.15;;;2.80;;
26864;SDS011;40618;51.166;10.322;2023-09-08T13:52:49;5.00;;;2.88;;
26864;SDS011;40618;51.166;10.322;2023-09-08T13:55:15;3.88;;;2.80;;
26864;SDS011;40618;51.166;10.322;2023-09-08T13:57:41;5.03;;;3.00;;
26864;SDS011;40618;51.166;10.322;2023-09-08T14:00:07;3.85;;;2.80;;
26864;SDS011;40618;51.166;10.322;2023-09-08T14:02:36;4.63;;;2.85;;
26864;SDS011;40618;51.166;10.322;2023-09-08T14:05:02;3.78;;;3.17;;
26864;SDS011;40618;51.166;10.322;2023-09-08T14:07:28;3.03;;;2.53;;
26864;SDS011;40618;51.166;10.322;2023-09-08T14:09:54;3.50;;;2.83;;
26864;SDS011;40618;51.166;10.322;2023-09-08T14:12:19;5.40;;;3.22;;
26864;SDS011;40618;51.166;10.322;2023-09-08T14:14:45;3.33;;;2.80;;
26864;SDS011;40618;51.166;10.322;2023-09-08T14:17:11;2.83;;;2.63;;
26864;SDS011;40618;51.166;10.322;2023-09-08T14:19:36;6.00;;;2.88;;
26864;SDS011;40618;51.166;10.322;2023-09-08T14:22:02;3.38;;;2.92;;
26864;SDS011;40618;51.166;10.322;2023-09-08T14:24:27;4.57;;;3.15;;
26864;SDS011;40618;51.166;10.322;2023-09-08T14:26:53;3.55;;;3.08;;
26864;SDS011;40618;51.166;10.322;2023-09-08T14:29:20;3.15;;;2.85;;
26864;SDS011;40618;51.166;10.322;2023-09-08T14:31:48;3.22;;;2.92;;
26864;SDS011;40618;51.166;10.322;2023-09-08T14:34:13;7.85;;;2.80;;
26864;SDS011;40618;51.166;10.322;2023-09-08T14:36:39;4.38;;;2.63;;
26864;SDS011;40618;51.166;10.322;2023-09-08T14:39:05;3.25;;;2.47;;
26864;SDS011;40618;51.166;10.322;2023-09-08T14:41:31;3.42;;;2.88;;
26864;SDS011;40618;51.166;10.322;2023-09-08T14:43:56;6.30;;;2.80;;
26864;SDS011;40618;51.166;10.322;2023-09-08T14:46:22;7.10;;;3.00;;
26864;SDS011;40618;51.166;10.322;2023-09-08T14:48:47;3.63;;;2.90;;
26864;SDS011;40618;51.166;10.322;2023-09-08T14:51:13;4.20;;;2.67;;